Terminal Aerodrome Forecast
Issued by NWS

Home | Current Version | Previous Version | Graphics & Text | Print | Product List | Glossary On
Versions: 1 2 3 4 5 6 7 8 9 10 11 12 13 14 15 16 17 18
891
FTUS43 KICT 201547 AAA
TAFSLN
TAF AMD
KSLN 201547Z 2016/2112 10003KT 1/4SM FG OVC002
     FM201730 14004KT 2SM BR OVC004
     FM201830 18007KT P6SM OVC008
     FM210000 19007KT P6SM BKN025=

USA.gov is the U.S. government's official web portal to all federal, state and local government web resources and services.